createdAt,value
2022-08-07T00:02:40.602Z,1.30
2022-08-07T00:05:05.829Z,1.58
2022-08-07T00:07:41.128Z,1.10
2022-08-07T00:10:26.417Z,1.92
2022-08-07T00:13:00.239Z,3.55
2022-08-07T00:15:38.235Z,3.25
2022-08-07T00:18:19.810Z,2.90
2022-08-07T00:20:54.385Z,2.30
2022-08-07T00:23:23.649Z,1.50
2022-08-07T00:26:00.067Z,0.90
2022-08-07T00:28:33.245Z,1.50
2022-08-07T00:31:05.934Z,1.30
2022-08-07T00:33:36.529Z,1.52
2022-08-07T00:38:39.825Z,1.70
2022-08-07T00:41:09.966Z,1.90
2022-08-07T00:43:58.892Z,1.50
2022-08-07T00:46:35.903Z,1.38
2022-08-07T00:49:04.433Z,1.50
2022-08-07T00:51:56.769Z,1.60
2022-08-07T00:54:25.517Z,0.98
2022-08-07T00:56:55.323Z,1.42
2022-08-07T00:59:35.491Z,1.10
2022-08-07T01:02:14.032Z,1.52
2022-08-07T01:04:58.746Z,1.65
2022-08-07T01:07:31.014Z,1.60
2022-08-07T01:10:06.145Z,1.25
2022-08-07T01:12:53.281Z,1.75
2022-08-07T01:16:00.550Z,1.55
2022-08-07T01:18:17.685Z,1.20
2022-08-07T01:20:57.454Z,1.35
2022-08-07T01:23:38.778Z,1.25
2022-08-07T01:26:16.786Z,1.05
2022-08-07T01:28:53.071Z,1.70
2022-08-07T01:31:42.303Z,1.10
2022-08-07T01:34:17.844Z,1.48
2022-08-07T01:36:52.825Z,1.45
2022-08-07T01:39:41.047Z,1.30
2022-08-07T01:42:57.312Z,1.58
2022-08-07T01:45:36.931Z,1.40
2022-08-07T01:48:18.071Z,1.55
2022-08-07T01:50:55.656Z,1.45
2022-08-07T01:54:09.621Z,1.25
2022-08-07T01:56:18.465Z,1.50
2022-08-07T01:58:53.780Z,1.25
2022-08-07T02:01:59.980Z,1.02
2022-08-07T02:04:56.030Z,1.10
2022-08-07T02:07:44.825Z,0.93
2022-08-07T02:10:26.571Z,1.27
2022-08-07T02:13:00.601Z,1.15
2022-08-07T02:15:37.417Z,1.77
2022-08-07T02:18:12.614Z,1.08
2022-08-07T02:20:48.471Z,1.13
2022-08-07T02:23:20.071Z,1.58
2022-08-07T02:26:26.653Z,0.88
2022-08-07T02:28:43.584Z,1.00
2022-08-07T02:31:28.731Z,1.27
2022-08-07T02:34:03.124Z,1.55
2022-08-07T02:36:37.903Z,1.30
2022-08-07T02:39:16.937Z,1.80
2022-08-07T02:42:10.100Z,1.15
2022-08-07T02:44:49.820Z,1.23
2022-08-07T02:47:23.996Z,0.82
2022-08-07T02:50:08.940Z,1.42
2022-08-07T02:52:52.200Z,1.00
2022-08-07T02:55:28.080Z,1.40
2022-08-07T02:58:15.500Z,1.50
2022-08-07T03:00:47.385Z,0.95
2022-08-07T03:03:22.940Z,1.10
2022-08-07T03:05:57.015Z,1.27
2022-08-07T03:08:29.512Z,1.33
2022-08-07T03:11:04.847Z,0.73
2022-08-07T03:13:49.498Z,1.20
2022-08-07T03:16:27.832Z,0.88
2022-08-07T03:19:02.412Z,1.10
2022-08-07T03:21:37.150Z,1.10
2022-08-07T03:24:20.436Z,0.98
2022-08-07T03:27:00.477Z,1.13
2022-08-07T03:29:44.638Z,1.05
2022-08-07T03:32:23.184Z,1.00
2022-08-07T03:35:16.842Z,1.08
2022-08-07T03:37:53.305Z,1.17
2022-08-07T03:40:30.852Z,0.82
2022-08-07T03:43:13.735Z,1.02
2022-08-07T03:45:50.172Z,0.63
2022-08-07T03:48:25.897Z,0.80
2022-08-07T03:50:57.944Z,0.70
2022-08-07T03:54:05.904Z,1.15
2022-08-07T03:56:33.463Z,0.80
2022-08-07T03:59:09.958Z,0.63
2022-08-07T04:01:45.587Z,0.80
2022-08-07T04:04:17.733Z,0.70
2022-08-07T04:06:50.995Z,0.95
2022-08-07T04:09:23.029Z,1.05
2022-08-07T04:12:24.889Z,0.60
2022-08-07T04:14:43.753Z,0.90
2022-08-07T04:18:56.633Z,0.80
2022-08-07T04:20:13.683Z,0.82
2022-08-07T04:22:53.440Z,1.58
2022-08-07T04:25:25.452Z,0.80
2022-08-07T04:28:01.497Z,0.73
2022-08-07T04:30:55.447Z,1.02
2022-08-07T04:33:32.975Z,0.88
2022-08-07T04:36:06.648Z,0.68
2022-08-07T04:38:37.201Z,0.73
2022-08-07T04:41:05.980Z,0.77
2022-08-07T04:44:09.619Z,0.90
2022-08-07T04:47:04.761Z,0.70
2022-08-07T04:49:37.730Z,0.60
2022-08-07T04:52:10.204Z,0.77
2022-08-07T04:55:15.510Z,1.08
2022-08-07T05:00:51.465Z,0.82
2022-08-07T05:03:59.993Z,1.80
2022-08-07T05:06:20.280Z,0.50
2022-08-07T05:09:02.106Z,0.47
2022-08-07T05:11:58.933Z,0.50
2022-08-07T05:14:53.824Z,0.60
2022-08-07T05:17:51.832Z,0.60
2022-08-07T05:20:14.577Z,0.90
2022-08-07T05:22:47.592Z,0.70
2022-08-07T05:25:25.638Z,0.70
2022-08-07T05:28:21.015Z,0.73
2022-08-07T05:30:57.924Z,0.80
2022-08-07T05:33:35.460Z,0.50
2022-08-07T05:36:08.053Z,0.40
2022-08-07T05:39:00.520Z,0.80
2022-08-07T05:42:00.177Z,1.10
2022-08-07T05:44:29.297Z,0.80
2022-08-07T05:47:18.557Z,0.70
2022-08-07T05:49:51.746Z,0.68
2022-08-07T05:52:32.210Z,0.60
2022-08-07T05:55:07.066Z,0.60
2022-08-07T05:57:46.616Z,0.67
2022-08-07T06:00:18.604Z,0.70
2022-08-07T06:03:10.218Z,0.38
2022-08-07T06:05:48.840Z,1.02
2022-08-07T06:08:31.310Z,0.82
2022-08-07T06:11:03.796Z,0.57
2022-08-07T06:14:12.436Z,0.50
2022-08-07T06:16:29.311Z,0.77
2022-08-07T06:19:02.717Z,0.60
2022-08-07T06:22:14.545Z,0.70
2022-08-07T06:24:45.812Z,0.57
2022-08-07T06:27:44.415Z,0.63
2022-08-07T06:30:24.183Z,0.75
2022-08-07T06:33:20.757Z,1.00
2022-08-07T06:36:12.973Z,1.02
2022-08-07T06:38:59.415Z,0.82
2022-08-07T06:42:00.965Z,0.70
2022-08-07T06:45:07.597Z,0.40
2022-08-07T06:47:58.555Z,0.50
2022-08-07T06:50:36.086Z,0.47
2022-08-07T06:53:49.346Z,0.80
2022-08-07T06:56:01.378Z,0.50
2022-08-07T06:58:36.357Z,0.50
2022-08-07T07:01:14.292Z,0.50
2022-08-07T07:03:49.952Z,0.60
2022-08-07T07:06:26.338Z,0.47
2022-08-07T07:08:58.146Z,0.40
2022-08-07T07:12:08.750Z,0.70
2022-08-07T07:14:19.117Z,0.55
2022-08-07T07:16:53.475Z,0.40
2022-08-07T07:19:55.652Z,0.40
2022-08-07T07:22:36.381Z,0.70
2022-08-07T07:26:31.022Z,0.50
2022-08-07T07:28:02.730Z,0.45
2022-08-07T07:30:39.994Z,0.60
2022-08-07T07:33:21.406Z,0.40
2022-08-07T07:36:05.572Z,0.40
2022-08-07T07:38:45.930Z,0.30
2022-08-07T07:41:18.508Z,0.30
2022-08-07T07:44:17.683Z,0.40
2022-08-07T07:46:55.648Z,0.50
2022-08-07T07:50:36.641Z,0.50
2022-08-07T07:52:18.861Z,0.40
2022-08-07T07:54:51.315Z,0.35
2022-08-07T07:57:29.103Z,0.22
2022-08-07T08:00:15.031Z,0.38
2022-08-07T08:04:06.152Z,0.40
2022-08-07T08:06:11.551Z,0.30
2022-08-07T08:08:44.063Z,0.20
2022-08-07T08:11:59.267Z,0.30
2022-08-07T08:14:11.068Z,0.13
2022-08-07T08:16:50.282Z,0.30
2022-08-07T08:20:18.026Z,0.30
2022-08-07T08:22:55.829Z,0.30
2022-08-07T08:25:49.239Z,0.20
2022-08-07T08:28:23.877Z,0.30
2022-08-07T08:31:16.379Z,0.35
2022-08-07T08:33:49.705Z,0.30
2022-08-07T08:36:30.113Z,0.25
2022-08-07T08:39:02.283Z,0.30
2022-08-07T08:41:58.429Z,0.20
2022-08-07T08:44:33.244Z,0.10
2022-08-07T08:47:20.509Z,0.30
2022-08-07T08:50:09.156Z,0.32
2022-08-07T08:53:01.350Z,0.28
2022-08-07T08:55:55.556Z,0.30
2022-08-07T08:58:36.850Z,0.30
2022-08-07T09:01:29.979Z,0.22
2022-08-07T09:04:18.788Z,0.10
2022-08-07T09:06:59.820Z,0.20
2022-08-07T09:09:56.977Z,0.20
2022-08-07T09:12:34.794Z,0.10
2022-08-07T09:16:21.957Z,0.15
2022-08-07T09:18:11.483Z,0.20
2022-08-07T09:20:41.296Z,0.20
2022-08-07T09:24:32.765Z,0.10
2022-08-07T09:26:47.758Z,0.10
2022-08-07T09:30:06.614Z,0.47
2022-08-07T09:32:18.655Z,0.10
2022-08-07T09:34:53.670Z,0.10
2022-08-07T09:37:33.672Z,0.20
2022-08-07T09:40:33.631Z,0.10
2022-08-07T09:47:24.494Z,0.20
2022-08-07T09:50:02.069Z,0.20
2022-08-07T09:52:10.225Z,0.28
2022-08-07T09:54:42.358Z,0.25
2022-08-07T09:57:23.442Z,0.28
2022-08-07T10:00:03.616Z,0.10
2022-08-07T10:02:57.771Z,0.20
2022-08-07T10:06:00.878Z,0.20
2022-08-07T10:08:51.308Z,0.22
2022-08-07T10:12:01.484Z,0.10
2022-08-07T10:14:35.268Z,0.20
2022-08-07T10:17:21.956Z,0.10
2022-08-07T10:20:07.125Z,0.20
2022-08-07T10:22:50.951Z,0.10
2022-08-07T10:25:32.920Z,0.20
2022-08-07T10:28:20.266Z,0.30
2022-08-07T10:30:51.661Z,0.08
2022-08-07T10:33:19.824Z,0.22
2022-08-07T10:36:29.788Z,0.10
2022-08-07T10:39:05.497Z,0.10
2022-08-07T10:41:52.413Z,0.57
2022-08-07T10:44:38.386Z,0.40
2022-08-07T10:47:14.439Z,0.20
2022-08-07T10:49:51.790Z,0.20
2022-08-07T10:52:31.756Z,0.30
2022-08-07T10:55:27.089Z,0.10
2022-08-07T10:58:06.738Z,0.20
2022-08-07T11:00:50.591Z,0.30
2022-08-07T11:03:37.155Z,0.20
2022-08-07T11:06:18.306Z,0.20
2022-08-07T11:09:01.124Z,0.28
2022-08-07T11:11:51.640Z,0.22
2022-08-07T11:14:44.469Z,0.32
2022-08-07T11:17:23.151Z,0.30
2022-08-07T11:20:12.655Z,0.20
2022-08-07T11:22:50.093Z,0.32
2022-08-07T11:25:25.485Z,0.30
2022-08-07T11:28:07.767Z,0.25
2022-08-07T11:30:43.325Z,0.30
2022-08-07T11:33:53.795Z,0.10
2022-08-07T11:36:30.571Z,0.50
2022-08-07T11:39:06.948Z,0.30
2022-08-07T11:42:02.362Z,0.20
2022-08-07T11:44:57.921Z,0.20
2022-08-07T11:47:39.154Z,0.20
2022-08-07T11:50:32.063Z,0.60
2022-08-07T11:53:01.292Z,0.40
2022-08-07T11:56:09.553Z,0.30
2022-08-07T11:58:59.952Z,0.30
2022-08-07T12:01:59.997Z,0.22
2022-08-07T12:04:34.702Z,0.38
2022-08-07T12:07:14.006Z,0.20
2022-08-07T12:09:49.837Z,0.20
2022-08-07T12:12:26.816Z,0.15
2022-08-07T12:15:17.390Z,0.28
2022-08-07T12:18:29.874Z,0.25
2022-08-07T12:21:02.906Z,0.30
2022-08-07T12:24:06.651Z,0.15
2022-08-07T12:26:42.012Z,0.30
2022-08-07T12:29:37.706Z,0.40
2022-08-07T12:32:22.199Z,0.20
2022-08-07T12:34:55.796Z,0.13
2022-08-07T12:38:11.498Z,0.30
2022-08-07T12:40:46.414Z,0.28
2022-08-07T12:43:10.590Z,0.40
2022-08-07T12:45:52.768Z,0.20
2022-08-07T12:48:52.040Z,0.20
2022-08-07T12:51:46.561Z,0.47
2022-08-07T12:54:37.238Z,0.30
2022-08-07T12:57:10.127Z,0.30
2022-08-07T12:59:54.798Z,0.20
2022-08-07T13:02:36.389Z,0.10
2022-08-07T13:06:01.960Z,0.20
2022-08-07T13:08:14.055Z,0.20
2022-08-07T13:11:01.369Z,0.20
2022-08-07T13:13:50.329Z,0.30
2022-08-07T13:16:27.918Z,0.20
2022-08-07T13:19:18.072Z,0.20
2022-08-07T13:22:19.692Z,0.30
2022-08-07T13:25:00.131Z,0.20
2022-08-07T13:27:33.354Z,0.20
2022-08-07T13:30:19.667Z,0.10
2022-08-07T13:34:31.381Z,0.32
2022-08-07T13:36:05.403Z,0.25
2022-08-07T13:38:59.761Z,0.20
2022-08-07T13:41:35.821Z,0.20
2022-08-07T13:44:12.836Z,0.20
2022-08-07T13:46:49.560Z,0.20
2022-08-07T13:50:35.063Z,0.20
2022-08-07T13:52:32.271Z,0.10
2022-08-07T13:55:00.732Z,0.30
2022-08-07T13:57:38.564Z,0.30
2022-08-07T14:00:26.400Z,0.30
2022-08-07T14:03:13.853Z,0.17
2022-08-07T14:05:57.833Z,0.30
2022-08-07T14:08:27.420Z,0.40
2022-08-07T14:11:14.700Z,0.47
2022-08-07T14:13:50.398Z,0.22
2022-08-07T14:16:22.374Z,0.20
2022-08-07T14:18:57.588Z,0.10
2022-08-07T14:22:01.120Z,0.30
2022-08-07T14:24:37.487Z,0.20
2022-08-07T14:28:09.970Z,0.30
2022-08-07T14:30:09.413Z,0.22
2022-08-07T14:33:04.457Z,0.45
2022-08-07T14:35:45.053Z,0.20
2022-08-07T14:38:26.482Z,0.20
2022-08-07T14:41:04.813Z,0.20
2022-08-07T14:43:55.645Z,0.38
2022-08-07T14:46:33.326Z,0.22
2022-08-07T14:52:04.990Z,0.30
2022-08-07T14:54:41.984Z,0.10
2022-08-07T15:00:06.821Z,0.30
2022-08-07T15:02:57.036Z,0.40
2022-08-07T15:05:30.300Z,0.40
2022-08-07T15:07:59.878Z,0.55
2022-08-07T15:10:30.458Z,0.32
2022-08-07T15:13:06.233Z,0.17
2022-08-07T15:15:42.085Z,0.30
2022-08-07T15:18:33.955Z,0.40
2022-08-07T15:21:44.023Z,0.20
2022-08-07T15:25:13.486Z,0.30
2022-08-07T15:27:01.193Z,0.30
2022-08-07T15:30:08.692Z,0.40
2022-08-07T15:38:30.353Z,0.30
2022-08-07T15:41:23.461Z,0.40
2022-08-07T15:44:07.224Z,0.70
2022-08-07T15:46:51.717Z,0.30
2022-08-07T15:54:39.239Z,0.20
2022-08-07T15:57:39.892Z,0.32
2022-08-07T16:00:04.381Z,0.50
2022-08-07T16:02:50.318Z,0.30
2022-08-07T16:05:20.427Z,0.40
2022-08-07T16:08:30.620Z,0.35
2022-08-07T16:11:26.341Z,5.43
2022-08-07T16:14:11.785Z,0.80
2022-08-07T16:16:48.167Z,0.40
2022-08-07T16:19:41.815Z,0.40
2022-08-07T16:22:31.528Z,0.30
2022-08-07T16:25:52.221Z,0.30
2022-08-07T16:30:08.331Z,0.40
2022-08-07T16:31:50.821Z,0.40
2022-08-07T16:34:12.514Z,0.50
2022-08-07T16:38:06.628Z,0.30
2022-08-07T16:40:28.959Z,0.40
2022-08-07T16:43:18.641Z,0.30
2022-08-07T16:46:47.062Z,0.40
2022-08-07T16:49:04.368Z,0.70
2022-08-07T16:52:51.327Z,0.30
2022-08-07T16:55:13.166Z,0.30
2022-08-07T16:58:04.356Z,1.75
2022-08-07T17:00:40.937Z,0.60
2022-08-07T17:03:09.447Z,0.50
2022-08-07T17:06:19.975Z,1.50
2022-08-07T17:09:09.546Z,0.38
2022-08-07T17:12:01.476Z,0.90
2022-08-07T17:14:39.095Z,1.00
2022-08-07T17:17:10.022Z,0.47
2022-08-07T17:20:01.049Z,0.77
2022-08-07T17:22:46.589Z,0.60
2022-08-07T17:25:20.092Z,0.50
2022-08-07T17:28:19.352Z,0.80
2022-08-07T17:30:58.040Z,0.43
2022-08-07T17:33:39.068Z,0.50
2022-08-07T17:36:25.905Z,0.55
2022-08-07T17:38:57.616Z,0.30
2022-08-07T17:42:04.316Z,0.40
2022-08-07T17:44:33.732Z,0.57
2022-08-07T17:47:37.687Z,0.50
2022-08-07T17:50:30.196Z,0.50
2022-08-07T17:54:01.436Z,0.73
2022-08-07T17:56:28.738Z,0.60
2022-08-07T17:58:57.498Z,0.50
2022-08-07T18:01:36.667Z,0.52
2022-08-07T18:04:16.762Z,0.50
2022-08-07T18:07:19.246Z,0.50
2022-08-07T18:10:05.276Z,0.82
2022-08-07T18:12:42.667Z,0.55
2022-08-07T18:15:20.109Z,0.80
2022-08-07T18:18:36.503Z,1.45
2022-08-07T18:21:02.432Z,0.43
2022-08-07T18:23:43.384Z,0.50
2022-08-07T18:26:19.157Z,0.60
2022-08-07T18:29:06.642Z,0.88
2022-08-07T18:32:09.064Z,0.40
2022-08-07T18:35:00.625Z,0.45
2022-08-07T18:38:56.298Z,0.65
2022-08-07T18:40:39.927Z,0.60
2022-08-07T18:43:42.688Z,0.57
2022-08-07T18:46:27.594Z,0.40
2022-08-07T18:50:18.851Z,0.40
2022-08-07T18:52:34.873Z,1.40
2022-08-07T18:55:40.858Z,0.50
2022-08-07T18:58:15.162Z,0.50
2022-08-07T19:00:59.582Z,0.40
2022-08-07T19:03:49.730Z,0.60
2022-08-07T19:06:41.126Z,0.40
2022-08-07T19:09:56.830Z,0.63
2022-08-07T19:12:30.039Z,0.70
2022-08-07T19:16:03.158Z,0.40
2022-08-07T19:18:05.656Z,0.40
2022-08-07T19:20:36.351Z,0.50
2022-08-07T19:23:19.495Z,0.60
2022-08-07T19:26:25.067Z,0.50
2022-08-07T19:30:58.416Z,0.40
2022-08-07T19:32:07.837Z,1.00
2022-08-07T19:34:47.882Z,0.98
2022-08-07T19:37:20.096Z,2.67
2022-08-07T19:40:01.992Z,2.53
2022-08-07T19:42:42.984Z,0.85
2022-08-07T19:46:09.543Z,0.70
2022-08-07T19:48:06.589Z,0.70
2022-08-07T19:50:53.383Z,0.60
2022-08-07T19:54:33.035Z,0.50
2022-08-07T19:57:52.391Z,0.65
2022-08-07T19:59:02.589Z,0.47
2022-08-07T20:01:53.033Z,0.70
2022-08-07T20:04:31.834Z,0.60
2022-08-07T20:07:08.924Z,0.70
2022-08-07T20:10:35.779Z,0.45
2022-08-07T20:12:38.142Z,0.80
2022-08-07T20:15:15.715Z,0.88
2022-08-07T20:17:56.226Z,0.60
2022-08-07T20:20:34.828Z,0.57
2022-08-07T20:23:11.055Z,0.52
2022-08-07T20:26:04.581Z,0.55
2022-08-07T20:28:42.348Z,0.40
2022-08-07T20:31:21.376Z,0.65
2022-08-07T20:33:56.696Z,0.70
2022-08-07T20:36:28.253Z,0.90
2022-08-07T20:39:06.018Z,0.63
2022-08-07T20:41:50.513Z,0.50
2022-08-07T20:44:28.650Z,1.05
2022-08-07T20:47:05.740Z,0.50
2022-08-07T20:49:59.820Z,1.05
2022-08-07T20:52:51.369Z,0.43
2022-08-07T20:55:23.807Z,0.45
2022-08-07T20:58:02.475Z,0.60
2022-08-07T21:00:45.960Z,0.70
2022-08-07T21:03:26.837Z,0.68
2022-08-07T21:06:22.353Z,0.47
2022-08-07T21:09:00.856Z,0.60
2022-08-07T21:11:49.928Z,0.90
2022-08-07T21:14:32.729Z,0.90
2022-08-07T21:18:02.034Z,0.90
2022-08-07T21:20:05.013Z,0.65
2022-08-07T21:22:44.880Z,0.80
2022-08-07T21:25:20.550Z,0.70
2022-08-07T21:28:04.242Z,0.95
2022-08-07T21:30:57.529Z,0.70
2022-08-07T21:33:41.073Z,0.75
2022-08-07T21:36:31.325Z,1.00
2022-08-07T21:39:45.399Z,0.85
2022-08-07T21:44:53.447Z,0.77
2022-08-07T21:47:26.210Z,1.38
2022-08-07T21:50:02.412Z,0.80
2022-08-07T21:52:47.053Z,0.82
2022-08-07T21:55:28.376Z,1.45
2022-08-07T21:58:06.412Z,0.80
2022-08-07T22:00:36.293Z,1.00
2022-08-07T22:03:31.554Z,1.20
2022-08-07T22:06:07.200Z,0.80
2022-08-07T22:08:59.186Z,0.70
2022-08-07T22:12:05.144Z,0.80
2022-08-07T22:14:23.638Z,1.42
2022-08-07T22:17:06.012Z,0.80
2022-08-07T22:19:38.661Z,1.25
2022-08-07T22:22:21.484Z,0.88
2022-08-07T22:25:02.869Z,1.13
2022-08-07T22:28:07.675Z,0.90
2022-08-07T22:30:53.076Z,1.05
2022-08-07T22:33:52.463Z,0.98
2022-08-07T22:36:31.819Z,1.08
2022-08-07T22:39:03.768Z,1.05
2022-08-07T22:42:03.301Z,0.85
2022-08-07T22:44:34.419Z,0.82
2022-08-07T22:47:09.189Z,1.30
2022-08-07T22:49:58.529Z,1.20
2022-08-07T22:52:39.971Z,1.00
2022-08-07T22:55:23.013Z,0.95
2022-08-07T22:58:03.051Z,1.23
2022-08-07T23:01:09.711Z,1.60
2022-08-07T23:03:57.994Z,1.05
2022-08-07T23:06:25.926Z,0.88
2022-08-07T23:10:00.640Z,1.23
2022-08-07T23:12:34.389Z,1.00
2022-08-07T23:15:12.175Z,0.90
2022-08-07T23:18:03.045Z,1.10
2022-08-07T23:20:51.915Z,0.90
2022-08-07T23:24:06.888Z,1.15
2022-08-07T23:26:25.119Z,1.17
2022-08-07T23:29:43.454Z,0.98
2022-08-07T23:34:22.386Z,0.95
2022-08-07T23:35:20.564Z,1.13
2022-08-07T23:38:00.503Z,1.20
2022-08-07T23:40:32.339Z,1.10
2022-08-07T23:43:19.378Z,1.20
2022-08-07T23:46:03.142Z,0.90
2022-08-07T23:48:42.011Z,1.10
2022-08-07T23:52:58.451Z,1.52
2022-08-07T23:54:44.253Z,0.95
2022-08-07T23:57:34.884Z,1.20
